createdAt,value
2023-12-22T00:01:10.008Z,11.80
2023-12-22T00:03:59.412Z,18.90
2023-12-22T00:06:50.016Z,12.83
2023-12-22T00:09:39.338Z,12.87
2023-12-22T00:12:29.508Z,10.73
2023-12-22T00:15:20.335Z,14.00
2023-12-22T00:18:12.374Z,15.00
2023-12-22T00:21:01.830Z,15.13
2023-12-22T00:23:51.153Z,16.83
2023-12-22T00:26:40.509Z,10.60
2023-12-22T00:29:30.139Z,16.63
2023-12-22T00:32:20.829Z,10.97
2023-12-22T00:35:10.660Z,11.97
2023-12-22T00:37:59.996Z,19.40
2023-12-22T00:40:49.389Z,11.67
2023-12-22T00:43:38.781Z,11.13
2023-12-22T00:46:28.166Z,13.27
2023-12-22T00:49:19.375Z,12.10
2023-12-22T00:52:08.776Z,11.30
2023-12-22T00:54:58.658Z,12.83
2023-12-22T00:57:48.222Z,13.37
2023-12-22T01:00:37.625Z,14.13
2023-12-22T01:03:27.046Z,17.97
2023-12-22T01:06:17.857Z,12.67
2023-12-22T01:09:07.598Z,13.80
2023-12-22T01:11:56.981Z,11.87
2023-12-22T01:14:46.432Z,12.80
2023-12-22T01:17:35.974Z,11.73
2023-12-22T01:20:25.362Z,15.53
2023-12-22T01:23:16.121Z,10.80
2023-12-22T01:26:05.578Z,14.50
2023-12-22T01:28:54.961Z,15.83
2023-12-22T01:31:44.544Z,13.57
2023-12-22T01:34:34.031Z,18.63
2023-12-22T01:37:24.536Z,16.90
2023-12-22T01:40:15.610Z,16.87
2023-12-22T01:43:05.447Z,20.67
2023-12-22T01:45:59.138Z,13.63
2023-12-22T01:48:49.376Z,14.47
2023-12-22T01:51:41.868Z,12.70
2023-12-22T01:54:31.926Z,15.03
2023-12-22T01:57:22.643Z,12.37
2023-12-22T02:00:13.959Z,17.53
2023-12-22T02:03:03.748Z,16.33
2023-12-22T02:05:53.312Z,21.03
2023-12-22T02:08:44.199Z,21.13
2023-12-22T02:11:33.558Z,17.57
2023-12-22T02:14:24.376Z,13.07
2023-12-22T02:17:23.310Z,17.43
2023-12-22T02:20:13.595Z,22.20
2023-12-22T02:23:04.562Z,15.63
2023-12-22T02:26:11.604Z,29.97
2023-12-22T02:29:02.930Z,24.70
2023-12-22T02:31:55.888Z,16.17
2023-12-22T02:34:48.997Z,15.70
2023-12-22T02:37:41.285Z,17.20
2023-12-22T02:40:33.667Z,14.53
2023-12-22T02:43:23.569Z,11.33
2023-12-22T02:46:16.895Z,16.37
2023-12-22T02:49:06.336Z,16.60
2023-12-22T02:51:55.762Z,15.30
2023-12-22T02:54:45.051Z,14.77
2023-12-22T02:57:35.883Z,18.50
2023-12-22T03:00:25.290Z,15.90
2023-12-22T03:03:15.177Z,25.40
2023-12-22T03:06:04.947Z,17.80
2023-12-22T03:08:54.280Z,19.23
2023-12-22T03:11:43.557Z,24.50
2023-12-22T03:14:34.565Z,17.60
2023-12-22T03:17:23.963Z,14.90
2023-12-22T03:20:13.690Z,18.10
2023-12-22T03:23:03.086Z,20.00
2023-12-22T03:25:52.575Z,17.10
2023-12-22T03:28:41.954Z,16.00
2023-12-22T03:31:32.870Z,13.90
2023-12-22T03:34:22.262Z,15.87
2023-12-22T03:37:11.730Z,13.70
2023-12-22T03:40:01.068Z,13.60
2023-12-22T03:42:50.373Z,17.33
2023-12-22T03:45:39.847Z,15.23
2023-12-22T03:48:30.557Z,13.07
2023-12-22T03:51:19.946Z,13.07
2023-12-22T03:54:09.322Z,13.20
2023-12-22T03:56:58.635Z,16.53
2023-12-22T03:59:48.018Z,18.53
2023-12-22T04:02:37.386Z,14.10
2023-12-22T04:05:28.052Z,15.50
2023-12-22T04:08:17.381Z,11.40
2023-12-22T04:11:06.707Z,14.20
2023-12-22T04:13:56.141Z,13.40
2023-12-22T04:16:45.684Z,12.90
2023-12-22T04:19:35.227Z,12.83
2023-12-22T04:22:26.051Z,15.37
2023-12-22T04:25:15.504Z,14.63
2023-12-22T04:28:05.513Z,11.47
2023-12-22T04:30:54.828Z,12.70
2023-12-22T04:33:44.170Z,11.70
2023-12-22T04:36:33.514Z,11.93
2023-12-22T04:39:26.622Z,14.57
2023-12-22T04:42:16.652Z,10.70
2023-12-22T04:45:06.847Z,10.10
2023-12-22T04:47:56.161Z,10.17
2023-12-22T04:50:45.442Z,10.07
2023-12-22T04:53:34.989Z,9.50
2023-12-22T04:56:26.057Z,10.00
2023-12-22T04:59:15.336Z,10.17
2023-12-22T05:02:05.181Z,9.90
2023-12-22T05:04:54.611Z,9.60
2023-12-22T05:07:43.900Z,10.50
2023-12-22T05:10:33.483Z,10.00
2023-12-22T05:13:24.246Z,11.80
2023-12-22T05:16:13.626Z,10.70
2023-12-22T05:19:03.056Z,13.30
2023-12-22T05:21:53.809Z,10.40
2023-12-22T05:24:43.201Z,10.37
2023-12-22T05:27:32.683Z,10.00
2023-12-22T05:30:23.671Z,12.50
2023-12-22T05:33:13.000Z,10.50
2023-12-22T05:36:02.359Z,10.03
2023-12-22T05:38:51.773Z,10.30
2023-12-22T05:41:41.125Z,10.80
2023-12-22T05:44:31.842Z,11.53
2023-12-22T05:47:22.686Z,9.87
2023-12-22T05:50:13.640Z,15.20
2023-12-22T05:53:03.302Z,10.73
2023-12-22T05:55:52.784Z,12.30
2023-12-22T05:58:42.104Z,11.80
2023-12-22T06:01:31.629Z,10.50
2023-12-22T06:04:22.439Z,10.30
2023-12-22T06:07:12.218Z,10.10
2023-12-22T06:10:01.564Z,13.30
2023-12-22T06:12:50.996Z,10.47
2023-12-22T06:15:40.285Z,10.20
2023-12-22T06:18:29.710Z,10.30
2023-12-22T06:21:20.481Z,10.23
2023-12-22T06:24:10.855Z,12.90
2023-12-22T06:27:00.243Z,11.50
2023-12-22T06:29:49.992Z,10.37
2023-12-22T06:32:41.026Z,10.93
2023-12-22T06:35:30.478Z,12.30
2023-12-22T06:38:21.189Z,10.70
2023-12-22T06:41:21.862Z,9.70
2023-12-22T06:44:12.190Z,10.20
2023-12-22T06:47:01.584Z,10.53
2023-12-22T06:49:51.069Z,10.20
2023-12-22T06:52:40.620Z,10.10
2023-12-22T06:55:31.602Z,12.43
2023-12-22T06:58:22.502Z,10.10
2023-12-22T07:01:12.065Z,10.70
2023-12-22T07:04:02.360Z,12.63
2023-12-22T07:06:52.109Z,11.03
2023-12-22T07:09:41.444Z,13.53
2023-12-22T07:12:33.294Z,10.47
2023-12-22T07:15:22.865Z,10.03
2023-12-22T07:18:12.445Z,10.27
2023-12-22T07:21:02.660Z,11.63
2023-12-22T07:23:52.074Z,11.73
2023-12-22T07:26:41.398Z,17.83
2023-12-22T07:29:32.108Z,10.50
2023-12-22T07:32:21.413Z,11.60
2023-12-22T07:35:11.525Z,11.97
2023-12-22T07:38:00.888Z,12.30
2023-12-22T07:40:50.674Z,12.60
2023-12-22T07:43:40.067Z,10.20
2023-12-22T07:46:31.859Z,14.53
2023-12-22T07:49:21.658Z,10.27
2023-12-22T07:52:11.128Z,11.03
2023-12-22T07:55:00.534Z,16.73
2023-12-22T07:57:50.071Z,12.57
2023-12-22T08:00:39.712Z,10.60
2023-12-22T08:03:30.488Z,10.93
2023-12-22T08:06:19.909Z,10.50
2023-12-22T08:09:09.345Z,10.40
2023-12-22T08:11:58.747Z,11.63
2023-12-22T08:14:48.086Z,9.87
2023-12-22T08:17:37.610Z,10.17
2023-12-22T08:20:33.438Z,10.00
2023-12-22T08:23:29.403Z,10.07
2023-12-22T08:26:20.875Z,10.37
2023-12-22T08:29:10.297Z,10.40
2023-12-22T08:31:59.811Z,9.87
2023-12-22T08:34:49.241Z,10.30
2023-12-22T08:37:40.141Z,10.13
2023-12-22T08:40:30.228Z,10.33
2023-12-22T08:43:20.886Z,10.17
2023-12-22T08:46:10.830Z,10.37
2023-12-22T08:49:01.059Z,10.00
2023-12-22T08:51:50.483Z,10.07
2023-12-22T08:54:41.230Z,10.70
2023-12-22T08:57:30.521Z,9.63
2023-12-22T09:00:20.308Z,10.00
2023-12-22T09:03:09.717Z,10.40
2023-12-22T09:05:59.115Z,10.27
2023-12-22T09:08:48.824Z,12.47
2023-12-22T09:11:39.427Z,10.57
2023-12-22T09:14:28.760Z,10.37
2023-12-22T09:17:18.166Z,10.03
2023-12-22T09:20:10.166Z,10.10
2023-12-22T09:22:59.609Z,9.70
2023-12-22T09:25:49.342Z,10.23
2023-12-22T09:28:40.081Z,9.60
2023-12-22T09:31:29.486Z,10.10
2023-12-22T09:34:18.960Z,9.83
2023-12-22T09:37:08.382Z,10.87
2023-12-22T09:39:57.742Z,10.83
2023-12-22T09:42:47.672Z,9.97
2023-12-22T09:45:40.347Z,9.80
2023-12-22T09:48:30.066Z,12.77
2023-12-22T09:51:21.332Z,10.40
2023-12-22T09:54:12.196Z,9.60
2023-12-22T09:57:11.386Z,10.00
2023-12-22T10:00:13.746Z,9.63
2023-12-22T10:03:05.019Z,9.93
2023-12-22T10:05:54.590Z,9.93
2023-12-22T10:08:44.518Z,9.80
2023-12-22T10:11:35.615Z,9.80
2023-12-22T10:14:26.042Z,10.00
2023-12-22T10:17:16.287Z,9.57
2023-12-22T10:20:09.621Z,10.20
2023-12-22T10:22:59.220Z,10.60
2023-12-22T10:25:48.990Z,9.90
2023-12-22T10:28:38.419Z,10.30
2023-12-22T10:31:27.981Z,10.10
2023-12-22T10:34:17.716Z,9.50
2023-12-22T10:37:08.506Z,10.07
2023-12-22T10:39:58.077Z,10.00
2023-12-22T10:42:47.676Z,9.60
2023-12-22T10:45:36.975Z,9.67
2023-12-22T10:48:26.483Z,9.70
2023-12-22T10:51:15.862Z,9.43
2023-12-22T10:54:07.960Z,9.70
2023-12-22T10:57:00.930Z,9.40
2023-12-22T10:59:57.631Z,9.70
2023-12-22T11:02:50.734Z,10.00
2023-12-22T11:05:42.029Z,9.50
2023-12-22T11:08:32.928Z,9.80
2023-12-22T11:11:32.999Z,9.60
2023-12-22T11:14:23.456Z,10.50
2023-12-22T11:17:15.582Z,10.40
2023-12-22T11:20:07.687Z,12.63
2023-12-22T11:22:59.291Z,9.93
2023-12-22T11:25:54.952Z,11.20
2023-12-22T11:28:48.139Z,10.23
2023-12-22T11:31:39.846Z,10.57
2023-12-22T11:34:31.122Z,10.50
2023-12-22T11:37:20.537Z,12.20
2023-12-22T11:40:11.011Z,10.60
2023-12-22T11:43:02.197Z,11.80
2023-12-22T11:45:53.346Z,10.40
2023-12-22T11:48:50.199Z,9.87
2023-12-22T11:51:40.124Z,10.23
2023-12-22T11:54:49.383Z,10.53
2023-12-22T11:57:40.255Z,10.17
2023-12-22T12:00:47.451Z,10.73
2023-12-22T12:03:43.762Z,10.37
2023-12-22T12:06:38.255Z,11.00
2023-12-22T12:09:48.221Z,10.43
2023-12-22T12:12:37.823Z,11.67
2023-12-22T12:15:28.349Z,10.80
2023-12-22T12:18:17.879Z,10.73
2023-12-22T12:21:10.580Z,10.83
2023-12-22T12:24:00.887Z,10.53
2023-12-22T12:26:50.290Z,11.27
2023-12-22T12:29:40.318Z,10.33
2023-12-22T12:32:29.828Z,12.90
2023-12-22T12:35:21.529Z,11.07
2023-12-22T12:38:12.766Z,12.20
2023-12-22T12:41:06.133Z,10.33
2023-12-22T12:43:57.248Z,10.37
2023-12-22T12:46:46.613Z,10.10
2023-12-22T12:49:36.064Z,10.83
2023-12-22T12:52:26.301Z,10.53
2023-12-22T12:55:19.738Z,10.60
2023-12-22T12:58:09.191Z,10.43
2023-12-22T13:01:11.976Z,12.30
2023-12-22T13:04:02.000Z,11.23
2023-12-22T13:06:52.181Z,15.20
2023-12-22T13:09:44.134Z,11.37
2023-12-22T13:12:37.920Z,10.17
2023-12-22T13:15:27.579Z,9.63
2023-12-22T13:18:17.012Z,10.23
2023-12-22T13:21:06.835Z,9.90
2023-12-22T13:24:12.763Z,9.20
2023-12-22T13:27:04.499Z,9.40
2023-12-22T13:29:55.330Z,9.70
2023-12-22T13:32:44.727Z,9.93
2023-12-22T13:35:38.739Z,9.73
2023-12-22T13:38:30.308Z,9.50
2023-12-22T13:41:19.964Z,9.40
2023-12-22T13:44:10.322Z,9.40
2023-12-22T13:47:05.687Z,9.70
2023-12-22T13:49:55.824Z,9.97
2023-12-22T13:52:46.131Z,9.30
2023-12-22T13:55:38.474Z,9.40
2023-12-22T13:58:28.313Z,9.63
2023-12-22T14:01:19.021Z,9.50
2023-12-22T14:04:11.602Z,9.53
2023-12-22T14:07:01.216Z,10.13
2023-12-22T14:09:50.563Z,9.30
2023-12-22T14:12:40.554Z,9.70
2023-12-22T14:15:37.143Z,10.03
2023-12-22T14:18:31.544Z,9.60
2023-12-22T14:21:22.271Z,9.70
2023-12-22T14:24:11.602Z,9.77
2023-12-22T14:27:00.952Z,9.70
2023-12-22T14:29:50.282Z,9.33
2023-12-22T14:32:39.964Z,9.97
2023-12-22T14:35:29.416Z,9.80
2023-12-22T14:38:20.208Z,9.90
2023-12-22T14:41:12.442Z,9.77
2023-12-22T14:44:02.125Z,9.93
2023-12-22T14:46:51.586Z,9.90
2023-12-22T14:49:41.159Z,9.70
2023-12-22T14:52:30.870Z,10.00
2023-12-22T14:55:22.070Z,10.27
2023-12-22T14:58:12.060Z,9.80
2023-12-22T15:01:01.497Z,10.50
2023-12-22T15:03:51.564Z,10.30
2023-12-22T15:06:41.663Z,10.20
2023-12-22T15:09:31.172Z,9.80
2023-12-22T15:12:21.888Z,10.60
2023-12-22T15:15:11.890Z,10.60
2023-12-22T15:18:01.317Z,10.10
2023-12-22T15:20:52.561Z,10.17
2023-12-22T15:23:42.322Z,10.27
2023-12-22T15:26:31.619Z,10.50
2023-12-22T15:29:22.314Z,10.87
2023-12-22T15:32:11.800Z,10.80
2023-12-22T15:35:01.280Z,10.60
2023-12-22T15:37:52.062Z,10.13
2023-12-22T15:40:41.478Z,10.33
2023-12-22T15:43:32.249Z,10.67
2023-12-22T15:46:24.106Z,10.70
2023-12-22T15:49:13.733Z,10.83
2023-12-22T15:52:03.121Z,12.97
2023-12-22T15:54:52.464Z,10.90
2023-12-22T15:57:42.585Z,10.50
2023-12-22T16:00:31.892Z,11.00
2023-12-22T16:03:22.674Z,11.00
2023-12-22T16:06:12.050Z,11.23
2023-12-22T16:09:01.435Z,11.43
2023-12-22T16:11:50.807Z,11.50
2023-12-22T16:14:40.137Z,11.63
2023-12-22T16:17:30.090Z,11.57
2023-12-22T16:20:21.159Z,11.13
2023-12-22T16:23:10.631Z,10.63
2023-12-22T16:26:00.316Z,12.50
2023-12-22T16:28:49.869Z,11.33
2023-12-22T16:31:41.198Z,10.60
2023-12-22T16:34:30.748Z,10.80
2023-12-22T16:37:21.596Z,10.00
2023-12-22T16:40:12.829Z,10.13
2023-12-22T16:43:02.245Z,9.90
2023-12-22T16:45:51.660Z,10.67
2023-12-22T16:48:41.062Z,10.20
2023-12-22T16:51:30.401Z,10.00
2023-12-22T16:54:21.077Z,10.00
2023-12-22T16:57:10.394Z,10.10
2023-12-22T16:59:59.733Z,10.10
2023-12-22T17:02:49.656Z,10.57
2023-12-22T17:05:42.555Z,10.73
2023-12-22T17:08:33.139Z,10.87
2023-12-22T17:11:24.041Z,10.53
2023-12-22T17:14:13.678Z,10.13
2023-12-22T17:17:04.572Z,10.40
2023-12-22T17:19:54.004Z,10.20
2023-12-22T17:22:43.438Z,10.50
2023-12-22T17:25:35.491Z,10.63
2023-12-22T17:28:29.435Z,10.00
2023-12-22T17:31:19.202Z,9.50
2023-12-22T17:34:09.204Z,9.80
2023-12-22T17:36:58.615Z,10.30
2023-12-22T17:39:48.126Z,10.33
2023-12-22T17:42:37.711Z,10.10
2023-12-22T17:45:28.373Z,9.80
2023-12-22T17:48:17.811Z,9.73
2023-12-22T17:51:08.454Z,10.30
2023-12-22T17:53:57.787Z,9.73
2023-12-22T17:56:47.086Z,9.70
2023-12-22T17:59:36.373Z,10.70
2023-12-22T18:02:27.148Z,11.10
2023-12-22T18:05:16.594Z,10.63
2023-12-22T18:08:07.633Z,9.80
2023-12-22T18:10:57.022Z,9.77
2023-12-22T18:13:46.345Z,9.93
2023-12-22T18:16:41.119Z,9.40
2023-12-22T18:19:35.189Z,9.60
2023-12-22T18:22:24.651Z,9.53
2023-12-22T18:25:14.072Z,9.67
2023-12-22T18:28:03.387Z,9.47
2023-12-22T18:30:53.095Z,9.40
2023-12-22T18:33:43.852Z,9.70
2023-12-22T18:36:34.547Z,9.60
2023-12-22T18:39:23.889Z,9.40
2023-12-22T18:42:13.138Z,9.40
2023-12-22T18:45:02.491Z,9.30
2023-12-22T18:47:52.420Z,9.53
2023-12-22T18:50:44.348Z,9.40
2023-12-22T18:53:37.037Z,8.90
2023-12-22T18:56:26.472Z,9.40
2023-12-22T18:59:16.762Z,9.50
2023-12-22T19:02:23.599Z,9.70
2023-12-22T19:05:16.326Z,9.27
2023-12-22T19:08:06.614Z,10.30
2023-12-22T19:10:57.346Z,9.50
2023-12-22T19:13:46.771Z,9.73
2023-12-22T19:16:37.867Z,10.10
2023-12-22T19:19:28.616Z,9.67
2023-12-22T19:22:18.086Z,9.70
2023-12-22T19:25:08.261Z,9.50
2023-12-22T19:28:01.678Z,9.40
2023-12-22T19:30:52.931Z,9.50
2023-12-22T19:33:42.879Z,10.07
2023-12-22T19:36:32.506Z,9.80
2023-12-22T19:39:22.030Z,9.40
2023-12-22T19:42:12.550Z,9.60
2023-12-22T19:45:03.617Z,9.40
2023-12-22T19:47:53.446Z,9.40
2023-12-22T19:50:43.898Z,9.50
2023-12-22T19:53:33.331Z,9.50
2023-12-22T19:56:22.717Z,9.50
2023-12-22T19:59:12.155Z,10.53
2023-12-22T20:02:03.346Z,9.47
2023-12-22T20:04:53.488Z,9.30
2023-12-22T20:07:43.117Z,9.47
2023-12-22T20:10:32.669Z,9.50
2023-12-22T20:13:22.599Z,9.53
2023-12-22T20:16:13.450Z,9.80
2023-12-22T20:19:04.695Z,9.90
2023-12-22T20:21:54.237Z,9.80
2023-12-22T20:24:43.569Z,9.60
2023-12-22T20:27:32.906Z,9.70
2023-12-22T20:30:23.030Z,9.67
2023-12-22T20:33:14.664Z,10.03
2023-12-22T20:36:05.941Z,10.00
2023-12-22T20:38:55.473Z,10.17
2023-12-22T20:41:44.988Z,9.63
2023-12-22T20:44:34.340Z,9.77
2023-12-22T20:47:23.710Z,9.70
2023-12-22T20:50:13.421Z,9.50
2023-12-22T20:53:04.404Z,9.70
2023-12-22T20:55:53.698Z,9.40
2023-12-22T20:58:43.034Z,9.20
2023-12-22T21:01:32.390Z,9.20
2023-12-22T21:04:21.645Z,9.40
2023-12-22T21:07:10.938Z,9.50
2023-12-22T21:10:01.872Z,9.40
2023-12-22T21:12:51.528Z,9.73
2023-12-22T21:15:41.532Z,10.20
2023-12-22T21:18:31.250Z,9.10
2023-12-22T21:21:20.683Z,9.60
2023-12-22T21:24:10.105Z,9.40
2023-12-22T21:27:00.928Z,9.60
2023-12-22T21:29:50.203Z,9.70
2023-12-22T21:32:39.715Z,9.20
2023-12-22T21:35:29.425Z,9.30
2023-12-22T21:38:18.798Z,9.30
2023-12-22T21:41:08.243Z,9.57
2023-12-22T21:43:59.025Z,9.20
2023-12-22T21:46:48.518Z,9.10
2023-12-22T21:49:38.912Z,9.20
2023-12-22T21:52:28.299Z,9.50
2023-12-22T21:55:17.710Z,9.20
2023-12-22T21:58:07.017Z,9.40
2023-12-22T22:00:57.724Z,9.50
2023-12-22T22:03:47.084Z,9.40
2023-12-22T22:06:36.474Z,9.50
2023-12-22T22:09:25.788Z,9.47
2023-12-22T22:12:15.183Z,9.50
2023-12-22T22:15:05.102Z,9.27
2023-12-22T22:17:57.044Z,12.17
2023-12-22T22:20:47.261Z,9.50
2023-12-22T22:23:36.677Z,9.60
2023-12-22T22:26:26.045Z,9.20
2023-12-22T22:29:16.516Z,9.80
2023-12-22T22:32:06.791Z,9.23
2023-12-22T22:34:57.527Z,9.20
2023-12-22T22:37:46.924Z,9.10
2023-12-22T22:40:36.407Z,9.73
2023-12-22T22:43:25.808Z,9.50
2023-12-22T22:46:15.199Z,9.40
2023-12-22T22:49:05.146Z,9.50
2023-12-22T22:51:56.435Z,9.70
2023-12-22T22:54:46.284Z,9.30
2023-12-22T22:57:37.199Z,9.60
2023-12-22T23:00:29.577Z,9.27
2023-12-22T23:03:18.960Z,9.20
2023-12-22T23:06:09.484Z,9.50
2023-12-22T23:09:02.433Z,9.13
2023-12-22T23:11:51.845Z,9.37
2023-12-22T23:14:41.238Z,9.40
2023-12-22T23:17:31.615Z,9.70
2023-12-22T23:20:21.140Z,9.60
2023-12-22T23:23:10.543Z,9.30
2023-12-22T23:26:01.633Z,9.60
2023-12-22T23:28:51.012Z,9.60
2023-12-22T23:31:40.460Z,16.53
2023-12-22T23:34:29.813Z,12.07
2023-12-22T23:37:19.234Z,11.17
2023-12-22T23:40:10.611Z,10.00
2023-12-22T23:43:01.362Z,10.27
2023-12-22T23:45:50.652Z,9.80
2023-12-22T23:48:42.842Z,10.13
2023-12-22T23:51:34.191Z,10.00
2023-12-22T23:54:23.573Z,9.90
2023-12-22T23:57:12.893Z,10.00
